Terminal Aerodrome Forecast
Issued by NWS Sioux Falls, SD

Home | Current Version | Previous Version | Graphics & Text | Print | Product List | Glossary On
Versions: 1 2 3 4 5 6 7 8 9 10 11 12 13
000
FTUS43 KFSD 281730
TAFFSD
TAF
KFSD 281730Z 2818/2918 29014G21KT P6SM BKN025
     FM281900 29015G22KT P6SM FEW035
     FM290100 28009KT P6SM SKC
     FM290300 27005KT P6SM SKC
     FM291600 29014KT P6SM SKC=

USA.gov is the U.S. government's official web portal to all federal, state and local government web resources and services.